^^
Saratoga-Weather Station Historical Data
Daily Summary for February 17, 2020 Units:  Both    English   Metric
Daily Weekly Monthly Yearly Custom
  High: Low: Average:
Temperature: 69.4 °F /  20.8 °C 47.8 °F /  8.8 °C 58.3 °F /  14.6 °C
Dew Point: 45.7 °F /  7.6 °C 37.6 °F /  3.1 °C 41.5 °F /  5.3 °C
Humidity: 75% 37% 55%
Wind Speed: 11mph /  17.7km/h - 2mph /  3.2km/h
Wind Gust: 11mph /  17.7km/h - -
Wind- - SW
Pressure: 30.2 in /  1023.7 hPa 30.1 in /  1020.3 hPa -
Precipitation: 0 in /  0.0 mm    
Historical Graphs
 
 
Tabular Data for February 17, 2020
Time Temperature Dew Point Pressure Wind Wind Speed Wind Gust Humidity Rainfall Rate (Hourly) solar
00:04 54.7 °F /  12.6 °C 41 °F /  5 °C 30.1in /  1020.3hPa NW 0.9mph /  1.4km/h 2mph /  3.2km/h 60% 0in /  0.0mm 0 W/m2
00:09 54.7 °F /  12.6 °C 40.6 °F /  4.8 °C 30.1in /  1020.3hPa NNW 2mph /  3.2km/h 3mph /  4.8km/h 59% 0in /  0.0mm 0 W/m2
00:14 55 °F /  12.8 °C 41 °F /  5 °C 30.1in /  1020.3hPa WSW 2.9mph /  4.7km/h 3mph /  4.8km/h 59% 0in /  0.0mm 0 W/m2
00:19 55.2 °F /  12.9 °C 40.6 °F /  4.8 °C 30.1in /  1020.3hPa SSW 4.9mph /  7.9km/h 6mph /  9.7km/h 58% 0in /  0.0mm 0 W/m2
00:24 55.2 °F /  12.9 °C 40.6 °F /  4.8 °C 30.1in /  1020.3hPa West 2mph /  3.2km/h 2mph /  3.2km/h 58% 0in /  0.0mm 0 W/m2
00:29 55.2 °F /  12.9 °C 41.2 °F /  5.1 °C 30.1in /  1020.3hPa NW 2mph /  3.2km/h 4mph /  6.4km/h 59% 0in /  0.0mm 0 W/m2
00:34 54.9 °F /  12.7 °C 40.8 °F /  4.9 °C 30.1in /  1020.3hPa WSW 2.9mph /  4.7km/h 3mph /  4.8km/h 59% 0in /  0.0mm 0 W/m2
00:39 54.5 °F /  12.5 °C 40.8 °F /  4.9 °C 30.1in /  1020.3hPa West 2mph /  3.2km/h 3mph /  4.8km/h 60% 0in /  0.0mm 0 W/m2
00:44 54.1 °F /  12.3 °C 41 °F /  5 °C 30.1in /  1020.3hPa WSW 2mph /  3.2km/h 3mph /  4.8km/h 61% 0in /  0.0mm 0 W/m2
00:49 53.8 °F /  12.1 °C 40.6 °F /  4.8 °C 30.1in /  1020.7hPa WNW 4mph /  6.4km/h 8mph /  12.9km/h 61% 0in /  0.0mm 0 W/m2
00:54 54 °F /  12.2 °C 40.8 °F /  4.9 °C 30.1in /  1020.7hPa West 2mph /  3.2km/h 3mph /  4.8km/h 61% 0in /  0.0mm 0 W/m2
00:59 54 °F /  12.2 °C 41.2 °F /  5.1 °C 30.1in /  1020.7hPa Calm   2mph /  3.2km/h 62% 0in /  0.0mm 0 W/m2
01:04 54 °F /  12.2 °C 41.2 °F /  5.1 °C 30.1in /  1020.7hPa WSW 0.9mph /  1.4km/h 2mph /  3.2km/h 62% 0in /  0.0mm 0 W/m2
01:09 53.4 °F /  11.9 °C 41.2 °F /  5.1 °C 30.1in /  1020.7hPa WSW 4.9mph /  7.9km/h 5mph /  8km/h 63% 0in /  0.0mm 0 W/m2
01:15 53.2 °F /  11.8 °C 41.4 °F /  5.2 °C 30.1in /  1020.7hPa Calm   2mph /  3.2km/h 64% 0in /  0.0mm 0 W/m2
01:20 53.2 °F /  11.8 °C 41.4 °F /  5.2 °C 30.1in /  1020.7hPa WSW 2mph /  3.2km/h 3mph /  4.8km/h 64% 0in /  0.0mm 0 W/m2
01:25 53.2 °F /  11.8 °C 41.4 °F /  5.2 °C 30.1in /  1020.7hPa NNW 2mph /  3.2km/h 4mph /  6.4km/h 64% 0in /  0.0mm 0 W/m2
01:30 53.2 °F /  11.8 °C 41.4 °F /  5.2 °C 30.1in /  1020.7hPa West 4mph /  6.4km/h 9mph /  14.5km/h 64% 0in /  0.0mm 0 W/m2
01:35 53.6 °F /  12 °C 41.4 °F /  5.2 °C 30.1in /  1020.7hPa West 2mph /  3.2km/h 6mph /  9.7km/h 63% 0in /  0.0mm 0 W/m2
01:40 53.8 °F /  12.1 °C 41.5 °F /  5.3 °C 30.1in /  1020.7hPa SSW 0.9mph /  1.4km/h 9mph /  14.5km/h 63% 0in /  0.0mm 0 W/m2
01:45 53.8 °F /  12.1 °C 41.5 °F /  5.3 °C 30.1in /  1020.7hPa NNW 2.9mph /  4.7km/h 6mph /  9.7km/h 63% 0in /  0.0mm 0 W/m2
01:50 53.6 °F /  12 °C 41.4 °F /  5.2 °C 30.2in /  1021.0hPa West 2.9mph /  4.7km/h 9mph /  14.5km/h 63% 0in /  0.0mm 0 W/m2
01:55 53.6 °F /  12 °C 41.4 °F /  5.2 °C 30.2in /  1021.0hPa NNW 4mph /  6.4km/h 8mph /  12.9km/h 63% 0in /  0.0mm 0 W/m2
02:00 53.6 °F /  12 °C 41.4 °F /  5.2 °C 30.2in /  1021.0hPa SSW 0.9mph /  1.4km/h 4mph /  6.4km/h 63% 0in /  0.0mm 0 W/m2
02:05 53.6 °F /  12 °C 41.4 °F /  5.2 °C 30.2in /  1021.0hPa East 0.9mph /  1.4km/h 5mph /  8km/h 63% 0in /  0.0mm 0 W/m2
02:10 53.4 °F /  11.9 °C 41.2 °F /  5.1 °C 30.2in /  1021.0hPa NNE 0.9mph /  1.4km/h 3mph /  4.8km/h 63% 0in /  0.0mm 0 W/m2
02:15 53.2 °F /  11.8 °C 41 °F /  5 °C 30.2in /  1021.0hPa NW 2mph /  3.2km/h 8mph /  12.9km/h 63% 0in /  0.0mm 0 W/m2
02:20 53.2 °F /  11.8 °C 41.4 °F /  5.2 °C 30.2in /  1021.0hPa WNW 2.9mph /  4.7km/h 4mph /  6.4km/h 64% 0in /  0.0mm 0 W/m2
02:25 53.1 °F /  11.7 °C 41.2 °F /  5.1 °C 30.2in /  1021.0hPa West 2.9mph /  4.7km/h 6mph /  9.7km/h 64% 0in /  0.0mm 0 W/m2
02:30 52.9 °F /  11.6 °C 41 °F /  5 °C 30.2in /  1021.0hPa WSW 0.9mph /  1.4km/h 5mph /  8km/h 64% 0in /  0.0mm 0 W/m2
02:35 52.7 °F /  11.5 °C 40.8 °F /  4.9 °C 30.2in /  1021.0hPa WSW 2.9mph /  4.7km/h 9mph /  14.5km/h 64% 0in /  0.0mm 0 W/m2
02:40 52.5 °F /  11.4 °C 41.2 °F /  5.1 °C 30.2in /  1021.0hPa WNW 4mph /  6.4km/h 4mph /  6.4km/h 65% 0in /  0.0mm 0 W/m2
02:45 52.3 °F /  11.3 °C 41 °F /  5 °C 30.2in /  1021.0hPa NNW 2mph /  3.2km/h 4mph /  6.4km/h 65% 0in /  0.0mm 0 W/m2
02:50 52.2 °F /  11.2 °C 40.8 °F /  4.9 °C 30.2in /  1021.0hPa West 2mph /  3.2km/h 11mph /  17.7km/h 65% 0in /  0.0mm 0 W/m2
02:55 52 °F /  11.1 °C 41 °F /  5 °C 30.2in /  1021.0hPa West 2mph /  3.2km/h 5mph /  8km/h 66% 0in /  0.0mm 0 W/m2
03:00 51.8 °F /  11 °C 40.8 °F /  4.9 °C 30.2in /  1021.0hPa WNW 2mph /  3.2km/h 7mph /  11.3km/h 66% 0in /  0.0mm 0 W/m2
03:05 51.6 °F /  10.9 °C 40.6 °F /  4.8 °C 30.2in /  1021.0hPa NNW 0.9mph /  1.4km/h 4mph /  6.4km/h 66% 0in /  0.0mm 0 W/m2
03:10 51.4 °F /  10.8 °C 40.5 °F /  4.7 °C 30.2in /  1021.0hPa Calm   3mph /  4.8km/h 66% 0in /  0.0mm 0 W/m2
03:15 51.3 °F /  10.7 °C 40.6 °F /  4.8 °C 30.2in /  1021.0hPa WNW 2mph /  3.2km/h 3mph /  4.8km/h 67% 0in /  0.0mm 0 W/m2
03:20 51.1 °F /  10.6 °C 40.5 °F /  4.7 °C 30.2in /  1021.0hPa NNW 2.9mph /  4.7km/h 4mph /  6.4km/h 67% 0in /  0.0mm 0 W/m2
03:25 50.7 °F /  10.4 °C 40.5 °F /  4.7 °C 30.2in /  1021.0hPa NW 4mph /  6.4km/h 4mph /  6.4km/h 68% 0in /  0.0mm 0 W/m2
03:30 50.7 °F /  10.4 °C 40.5 °F /  4.7 °C 30.2in /  1021.0hPa WNW 0.9mph /  1.4km/h 4mph /  6.4km/h 68% 0in /  0.0mm 0 W/m2
03:35 50.7 °F /  10.4 °C 40.5 °F /  4.7 °C 30.2in /  1021.0hPa NNW 2mph /  3.2km/h 3mph /  4.8km/h 68% 0in /  0.0mm 0 W/m2
03:40 50.5 °F /  10.3 °C 40.5 °F /  4.7 °C 30.2in /  1021.0hPa NW 0.9mph /  1.4km/h 4mph /  6.4km/h 68% 0in /  0.0mm 0 W/m2
03:45 50.5 °F /  10.3 °C 40.5 °F /  4.7 °C 30.2in /  1021.0hPa WNW 0.9mph /  1.4km/h 3mph /  4.8km/h 68% 0in /  0.0mm 0 W/m2
03:50 50.4 °F /  10.2 °C 40.6 °F /  4.8 °C 30.2in /  1021.0hPa West 2mph /  3.2km/h 3mph /  4.8km/h 69% 0in /  0.0mm 0 W/m2
03:55 50.2 °F /  10.1 °C 40.5 °F /  4.7 °C 30.2in /  1021.0hPa WSW 0.9mph /  1.4km/h 3mph /  4.8km/h 69% 0in /  0.0mm 0 W/m2
04:00 49.8 °F /  9.9 °C 40.1 °F /  4.5 °C 30.2in /  1021.0hPa Calm   1mph /  1.6km/h 69% 0in /  0.0mm 0 W/m2
04:05 49.6 °F /  9.8 °C 40.3 °F /  4.6 °C 30.2in /  1021.0hPa NW 2mph /  3.2km/h 3mph /  4.8km/h 70% 0in /  0.0mm 0 W/m2
04:10 49.6 °F /  9.8 °C 40.3 °F /  4.6 °C 30.2in /  1021.3hPa West 0.9mph /  1.4km/h 2mph /  3.2km/h 70% 0in /  0.0mm 0 W/m2
04:15 49.5 °F /  9.7 °C 40.1 °F /  4.5 °C 30.2in /  1021.3hPa WNW 2mph /  3.2km/h 4mph /  6.4km/h 70% 0in /  0.0mm 0 W/m2
04:20 49.5 °F /  9.7 °C 40.1 °F /  4.5 °C 30.2in /  1021.3hPa West 0.9mph /  1.4km/h 4mph /  6.4km/h 70% 0in /  0.0mm 0 W/m2
04:25 49.5 °F /  9.7 °C 40.1 °F /  4.5 °C 30.2in /  1021.3hPa WNW 0.9mph /  1.4km/h 3mph /  4.8km/h 70% 0in /  0.0mm 0 W/m2
04:30 49.3 °F /  9.6 °C 39.9 °F /  4.4 °C 30.2in /  1021.3hPa West 0.9mph /  1.4km/h 4mph /  6.4km/h 70% 0in /  0.0mm 0 W/m2
04:35 49.5 °F /  9.7 °C 40.1 °F /  4.5 °C 30.2in /  1021.3hPa Calm   2mph /  3.2km/h 70% 0in /  0.0mm 0 W/m2
04:41 49.3 °F /  9.6 °C 39.9 °F /  4.4 °C 30.2in /  1021.3hPa WSW 0.9mph /  1.4km/h 3mph /  4.8km/h 70% 0in /  0.0mm 0 W/m2
04:46 49.5 °F /  9.7 °C 40.1 °F /  4.5 °C 30.2in /  1021.3hPa WNW 4.9mph /  7.9km/h 5mph /  8km/h 70% 0in /  0.0mm 0 W/m2
04:51 49.5 °F /  9.7 °C 40.1 °F /  4.5 °C 30.2in /  1021.3hPa WNW 4.9mph /  7.9km/h 5mph /  8km/h 70% 0in /  0.0mm 0 W/m2
04:56 49.5 °F /  9.7 °C 40.1 °F /  4.5 °C 30.2in /  1021.3hPa Calm   3mph /  4.8km/h 70% 0in /  0.0mm 0 W/m2
05:01 49.5 °F /  9.7 °C 40.1 °F /  4.5 °C 30.2in /  1021.3hPa WNW 2mph /  3.2km/h 2mph /  3.2km/h 70% 0in /  0.0mm 0 W/m2
05:06 49.3 °F /  9.6 °C 39.9 °F /  4.4 °C 30.2in /  1021.3hPa Calm   4mph /  6.4km/h 70% 0in /  0.0mm 0 W/m2
05:11 49.1 °F /  9.5 °C 40.1 °F /  4.5 °C 30.2in /  1021.3hPa West 2mph /  3.2km/h 2mph /  3.2km/h 71% 0in /  0.0mm 0 W/m2
05:16 48.9 °F /  9.4 °C 39.9 °F /  4.4 °C 30.2in /  1021.3hPa WSW 2.9mph /  4.7km/h 4mph /  6.4km/h 71% 0in /  0.0mm 0 W/m2
05:21 48.9 °F /  9.4 °C 39.9 °F /  4.4 °C 30.2in /  1021.3hPa WSW 0.9mph /  1.4km/h 3mph /  4.8km/h 71% 0in /  0.0mm 0 W/m2
05:26 48.7 °F /  9.3 °C 39.7 °F /  4.3 °C 30.2in /  1021.3hPa NW 0.9mph /  1.4km/h 2mph /  3.2km/h 71% 0in /  0.0mm 0 W/m2
05:31 48.6 °F /  9.2 °C 39.9 °F /  4.4 °C 30.2in /  1021.3hPa WSW 2mph /  3.2km/h 2mph /  3.2km/h 72% 0in /  0.0mm 0 W/m2
05:36 48.4 °F /  9.1 °C 40.1 °F /  4.5 °C 30.2in /  1021.7hPa West 2mph /  3.2km/h 4mph /  6.4km/h 73% 0in /  0.0mm 0 W/m2
05:41 48 °F /  8.9 °C 39.7 °F /  4.3 °C 30.2in /  1021.7hPa NW 2mph /  3.2km/h 3mph /  4.8km/h 73% 0in /  0.0mm 0 W/m2
05:46 48 °F /  8.9 °C 39.7 °F /  4.3 °C 30.2in /  1021.7hPa West 0.9mph /  1.4km/h 4mph /  6.4km/h 73% 0in /  0.0mm 0 W/m2
05:51 47.8 °F /  8.8 °C 39.9 °F /  4.4 °C 30.2in /  1021.7hPa WSW 2.9mph /  4.7km/h 6mph /  9.7km/h 74% 0in /  0.0mm 5 W/m2
05:56 47.8 °F /  8.8 °C 39.9 °F /  4.4 °C 30.2in /  1021.7hPa WSW 2mph /  3.2km/h 3mph /  4.8km/h 74% 0in /  0.0mm 7 W/m2
06:02 47.8 °F /  8.8 °C 39.9 °F /  4.4 °C 30.2in /  1021.7hPa WNW 0.9mph /  1.4km/h 3mph /  4.8km/h 74% 0in /  0.0mm 9 W/m2
06:07 47.8 °F /  8.8 °C 40.3 °F /  4.6 °C 30.2in /  1022.0hPa West 2mph /  3.2km/h 4mph /  6.4km/h 75% 0in /  0.0mm 12 W/m2
06:12 47.8 °F /  8.8 °C 40.3 °F /  4.6 °C 30.2in /  1022.0hPa NNW 2mph /  3.2km/h 4mph /  6.4km/h 75% 0in /  0.0mm 14 W/m2
06:17 47.8 °F /  8.8 °C 40.3 °F /  4.6 °C 30.2in /  1022.0hPa West 2mph /  3.2km/h 5mph /  8km/h 75% 0in /  0.0mm 18 W/m2
06:22 48 °F /  8.9 °C 40.5 °F /  4.7 °C 30.2in /  1022.0hPa West 2mph /  3.2km/h 3mph /  4.8km/h 75% 0in /  0.0mm 19 W/m2
06:27 48.2 °F /  9 °C 40.6 °F /  4.8 °C 30.2in /  1022.0hPa WSW 4mph /  6.4km/h 4mph /  6.4km/h 75% 0in /  0.0mm 23 W/m2
06:32 48.4 °F /  9.1 °C 40.8 °F /  4.9 °C 30.2in /  1022.0hPa WNW 2mph /  3.2km/h 4mph /  6.4km/h 75% 0in /  0.0mm 25 W/m2
06:37 48.4 °F /  9.1 °C 40.8 °F /  4.9 °C 30.2in /  1022.0hPa Calm   2mph /  3.2km/h 75% 0in /  0.0mm 28 W/m2
06:42 48.6 °F /  9.2 °C 41 °F /  5 °C 30.2in /  1022.0hPa West 2mph /  3.2km/h 3mph /  4.8km/h 75% 0in /  0.0mm 30 W/m2
06:47 48.6 °F /  9.2 °C 40.6 °F /  4.8 °C 30.2in /  1022.0hPa WNW 2.9mph /  4.7km/h 3mph /  4.8km/h 74% 0in /  0.0mm 32 W/m2
06:52 48.6 °F /  9.2 °C 40.6 °F /  4.8 °C 30.2in /  1022.4hPa West 2mph /  3.2km/h 2mph /  3.2km/h 74% 0in /  0.0mm 33 W/m2
06:57 48.7 °F /  9.3 °C 40.8 °F /  4.9 °C 30.2in /  1022.4hPa North 2.9mph /  4.7km/h 4mph /  6.4km/h 74% 0in /  0.0mm 35 W/m2
07:02 48.7 °F /  9.3 °C 40.8 °F /  4.9 °C 30.2in /  1022.4hPa West 2mph /  3.2km/h 3mph /  4.8km/h 74% 0in /  0.0mm 37 W/m2
07:07 48.7 °F /  9.3 °C 40.5 °F /  4.7 °C 30.2in /  1022.4hPa North 0.9mph /  1.4km/h 3mph /  4.8km/h 73% 0in /  0.0mm 39 W/m2
07:12 48.9 °F /  9.4 °C 40.6 °F /  4.8 °C 30.2in /  1022.4hPa North 2.9mph /  4.7km/h 3mph /  4.8km/h 73% 0in /  0.0mm 40 W/m2
07:17 48.9 °F /  9.4 °C 40.6 °F /  4.8 °C 30.2in /  1022.4hPa NW 2mph /  3.2km/h 3mph /  4.8km/h 73% 0in /  0.0mm 42 W/m2
07:22 49.1 °F /  9.5 °C 40.5 °F /  4.7 °C 30.2in /  1022.4hPa West 4mph /  6.4km/h 4mph /  6.4km/h 72% 0in /  0.0mm 42 W/m2
07:27 49.3 °F /  9.6 °C 40.6 °F /  4.8 °C 30.2in /  1022.4hPa NNE 2.9mph /  4.7km/h 4mph /  6.4km/h 72% 0in /  0.0mm 44 W/m2
07:32 49.5 °F /  9.7 °C 40.8 °F /  4.9 °C 30.2in /  1022.4hPa NW 0.9mph /  1.4km/h 2mph /  3.2km/h 72% 0in /  0.0mm 44 W/m2
07:37 49.5 °F /  9.7 °C 40.5 °F /  4.7 °C 30.2in /  1022.4hPa WNW 0.9mph /  1.4km/h 3mph /  4.8km/h 71% 0in /  0.0mm 46 W/m2
07:42 49.6 °F /  9.8 °C 40.6 °F /  4.8 °C 30.2in /  1022.7hPa Calm   1mph /  1.6km/h 71% 0in /  0.0mm 46 W/m2
07:47 49.8 °F /  9.9 °C 40.8 °F /  4.9 °C 30.2in /  1022.7hPa North 2.9mph /  4.7km/h 6mph /  9.7km/h 71% 0in /  0.0mm 176 W/m2
07:52 49.8 °F /  9.9 °C 40.5 °F /  4.7 °C 30.2in /  1022.7hPa WNW 0.9mph /  1.4km/h 3mph /  4.8km/h 70% 0in /  0.0mm 253 W/m2
07:57 50.4 °F /  10.2 °C 41 °F /  5 °C 30.2in /  1022.7hPa WNW 2.9mph /  4.7km/h 5mph /  8km/h 70% 0in /  0.0mm 265 W/m2
08:02 50.5 °F /  10.3 °C 40.8 °F /  4.9 °C 30.2in /  1022.7hPa East 2mph /  3.2km/h 5mph /  8km/h 69% 0in /  0.0mm 276 W/m2
08:07 50.7 °F /  10.4 °C 40.5 °F /  4.7 °C 30.2in /  1022.7hPa NW 0.9mph /  1.4km/h 4mph /  6.4km/h 68% 0in /  0.0mm 294 W/m2
08:12 51.3 °F /  10.7 °C 41 °F /  5 °C 30.2in /  1022.7hPa NW 2mph /  3.2km/h 4mph /  6.4km/h 68% 0in /  0.0mm 306 W/m2
08:17 51.4 °F /  10.8 °C 41.2 °F /  5.1 °C 30.2in /  1022.7hPa East 0.9mph /  1.4km/h 4mph /  6.4km/h 68% 0in /  0.0mm 315 W/m2
08:22 51.8 °F /  11 °C 40.8 °F /  4.9 °C 30.2in /  1023.0hPa NW 2mph /  3.2km/h 9mph /  14.5km/h 66% 0in /  0.0mm 336 W/m2
08:27 51.6 °F /  10.9 °C 41 °F /  5 °C 30.2in /  1023.0hPa West 0.9mph /  1.4km/h 2mph /  3.2km/h 67% 0in /  0.0mm 348 W/m2
08:32 52.2 °F /  11.2 °C 41.5 °F /  5.3 °C 30.2in /  1023.0hPa East 2mph /  3.2km/h 9mph /  14.5km/h 67% 0in /  0.0mm 364 W/m2
08:37 52.2 °F /  11.2 °C 41.2 °F /  5.1 °C 30.2in /  1023.0hPa Calm   2mph /  3.2km/h 66% 0in /  0.0mm 376 W/m2
08:42 52.5 °F /  11.4 °C 41.5 °F /  5.3 °C 30.2in /  1023.0hPa NNE 0.9mph /  1.4km/h 3mph /  4.8km/h 66% 0in /  0.0mm 388 W/m2
08:47 52.9 °F /  11.6 °C 41.4 °F /  5.2 °C 30.2in /  1023.0hPa NE 2.9mph /  4.7km/h 6mph /  9.7km/h 65% 0in /  0.0mm 401 W/m2
08:52 52.9 °F /  11.6 °C 41.4 °F /  5.2 °C 30.2in /  1023.0hPa South 0.9mph /  1.4km/h 3mph /  4.8km/h 65% 0in /  0.0mm 415 W/m2
08:57 53.2 °F /  11.8 °C 41.7 °F /  5.4 °C 30.2in /  1023.0hPa WNW 2.9mph /  4.7km/h 4mph /  6.4km/h 65% 0in /  0.0mm 427 W/m2
09:02 53.4 °F /  11.9 °C 41.5 °F /  5.3 °C 30.2in /  1023.4hPa NE 2.9mph /  4.7km/h 4mph /  6.4km/h 64% 0in /  0.0mm 439 W/m2
09:07 53.8 °F /  12.1 °C 41.5 °F /  5.3 °C 30.2in /  1023.0hPa ESE 2mph /  3.2km/h 2mph /  3.2km/h 63% 0in /  0.0mm 455 W/m2
09:12 54.1 °F /  12.3 °C 42.3 °F /  5.7 °C 30.2in /  1023.4hPa ENE 0.9mph /  1.4km/h 4mph /  6.4km/h 64% 0in /  0.0mm 471 W/m2
09:17 54.7 °F /  12.6 °C 41.9 °F /  5.5 °C 30.2in /  1023.0hPa NE 2.9mph /  4.7km/h 7mph /  11.3km/h 62% 0in /  0.0mm 482 W/m2
09:22 54.9 °F /  12.7 °C 41.2 °F /  5.1 °C 30.2in /  1023.0hPa WNW 2mph /  3.2km/h 4mph /  6.4km/h 60% 0in /  0.0mm 496 W/m2
09:28 54.9 °F /  12.7 °C 41.2 °F /  5.1 °C 30.2in /  1023.4hPa NE 2mph /  3.2km/h 6mph /  9.7km/h 60% 0in /  0.0mm 510 W/m2
09:33 55.2 °F /  12.9 °C 40.6 °F /  4.8 °C 30.2in /  1023.4hPa WNW 2.9mph /  4.7km/h 3mph /  4.8km/h 58% 0in /  0.0mm 520 W/m2
09:38 55.8 °F /  13.2 °C 40.8 °F /  4.9 °C 30.2in /  1023.4hPa NNE 2mph /  3.2km/h 4mph /  6.4km/h 57% 0in /  0.0mm 536 W/m2
09:43 56.1 °F /  13.4 °C 41.2 °F /  5.1 °C 30.2in /  1023.4hPa NNE 2mph /  3.2km/h 8mph /  12.9km/h 57% 0in /  0.0mm 548 W/m2
09:48 56.5 °F /  13.6 °C 41.4 °F /  5.2 °C 30.2in /  1023.4hPa NW 4mph /  6.4km/h 4mph /  6.4km/h 57% 0in /  0.0mm 555 W/m2
09:53 56.3 °F /  13.5 °C 40.3 °F /  4.6 °C 30.2in /  1023.4hPa WNW 4mph /  6.4km/h 8mph /  12.9km/h 55% 0in /  0.0mm 566 W/m2
09:58 55.9 °F /  13.3 °C 40.5 °F /  4.7 °C 30.2in /  1023.4hPa WNW 4mph /  6.4km/h 6mph /  9.7km/h 56% 0in /  0.0mm 577 W/m2
10:03 55.9 °F /  13.3 °C 41.4 °F /  5.2 °C 30.2in /  1023.4hPa West 2mph /  3.2km/h 4mph /  6.4km/h 58% 0in /  0.0mm 591 W/m2
10:08 56.1 °F /  13.4 °C 40.1 °F /  4.5 °C 30.2in /  1023.4hPa North 4mph /  6.4km/h 8mph /  12.9km/h 55% 0in /  0.0mm 601 W/m2
10:13 56.1 °F /  13.4 °C 39.7 °F /  4.3 °C 30.2in /  1023.4hPa SW 4.9mph /  7.9km/h 5mph /  8km/h 54% 0in /  0.0mm 524 W/m2
10:18 55.9 °F /  13.3 °C 39.9 °F /  4.4 °C 30.2in /  1023.4hPa East 6mph /  9.7km/h 7mph /  11.3km/h 55% 0in /  0.0mm 54 W/m2
10:23 56.1 °F /  13.4 °C 40.1 °F /  4.5 °C 30.2in /  1023.4hPa WNW 4mph /  6.4km/h 5mph /  8km/h 55% 0in /  0.0mm 635 W/m2
10:28 55.9 °F /  13.3 °C 39.6 °F /  4.2 °C 30.2in /  1023.4hPa North 2.9mph /  4.7km/h 9mph /  14.5km/h 54% 0in /  0.0mm 645 W/m2
10:33 56.5 °F /  13.6 °C 41 °F /  5 °C 30.2in /  1023.4hPa ESE 4mph /  6.4km/h 4mph /  6.4km/h 56% 0in /  0.0mm 650 W/m2
10:38 57.4 °F /  14.1 °C 40.8 °F /  4.9 °C 30.2in /  1023.4hPa East 2mph /  3.2km/h 9mph /  14.5km/h 54% 0in /  0.0mm 666 W/m2
10:43 57.6 °F /  14.2 °C 40.1 °F /  4.5 °C 30.2in /  1023.4hPa Calm   4mph /  6.4km/h 52% 0in /  0.0mm 675 W/m2
10:48 57.7 °F /  14.3 °C 40.6 °F /  4.8 °C 30.2in /  1023.4hPa ENE 2.9mph /  4.7km/h 4mph /  6.4km/h 53% 0in /  0.0mm 682 W/m2
10:53 57.9 °F /  14.4 °C 40.8 °F /  4.9 °C 30.2in /  1023.4hPa ENE 4.9mph /  7.9km/h 8mph /  12.9km/h 53% 0in /  0.0mm 693 W/m2
10:58 58.3 °F /  14.6 °C 41.7 °F /  5.4 °C 30.2in /  1023.4hPa NE 0.9mph /  1.4km/h 3mph /  4.8km/h 54% 0in /  0.0mm 701 W/m2
11:03 58.6 °F /  14.8 °C 41 °F /  5 °C 30.2in /  1023.4hPa NW 0.9mph /  1.4km/h 3mph /  4.8km/h 52% 0in /  0.0mm 710 W/m2
11:08 58.6 °F /  14.8 °C 40.6 °F /  4.8 °C 30.2in /  1023.4hPa ESE 2.9mph /  4.7km/h 4mph /  6.4km/h 51% 0in /  0.0mm 717 W/m2
11:13 58.8 °F /  14.9 °C 40.8 °F /  4.9 °C 30.2in /  1023.4hPa NE 2mph /  3.2km/h 8mph /  12.9km/h 51% 0in /  0.0mm 728 W/m2
11:18 58.8 °F /  14.9 °C 40.8 °F /  4.9 °C 30.2in /  1023.7hPa NNW 2mph /  3.2km/h 7mph /  11.3km/h 51% 0in /  0.0mm 735 W/m2
11:23 58.8 °F /  14.9 °C 40.8 °F /  4.9 °C 30.2in /  1023.7hPa West 2mph /  3.2km/h 8mph /  12.9km/h 51% 0in /  0.0mm 740 W/m2
11:28 58.8 °F /  14.9 °C 40.8 °F /  4.9 °C 30.2in /  1023.4hPa WSW 4.9mph /  7.9km/h 6mph /  9.7km/h 51% 0in /  0.0mm 751 W/m2
11:33 58.8 °F /  14.9 °C 40.3 °F /  4.6 °C 30.2in /  1023.4hPa WNW 2.9mph /  4.7km/h 4mph /  6.4km/h 50% 0in /  0.0mm 754 W/m2
11:38 58.8 °F /  14.9 °C 40.8 °F /  4.9 °C 30.2in /  1023.7hPa SW 0.9mph /  1.4km/h 5mph /  8km/h 51% 0in /  0.0mm 763 W/m2
11:43 59.5 °F /  15.3 °C 41.4 °F /  5.2 °C 30.2in /  1023.7hPa ESE 0.9mph /  1.4km/h 3mph /  4.8km/h 51% 0in /  0.0mm 772 W/m2
11:48 59.9 °F /  15.5 °C 40.1 °F /  4.5 °C 30.2in /  1023.7hPa West 4mph /  6.4km/h 6mph /  9.7km/h 48% 0in /  0.0mm 775 W/m2
11:53 60.1 °F /  15.6 °C 40.3 °F /  4.6 °C 30.2in /  1023.7hPa NE 4mph /  6.4km/h 4mph /  6.4km/h 48% 0in /  0.0mm 786 W/m2
11:58 60.1 °F /  15.6 °C 39.2 °F /  4 °C 30.2in /  1023.4hPa West 2.9mph /  4.7km/h 3mph /  4.8km/h 46% 0in /  0.0mm 791 W/m2
12:03 60.3 °F /  15.7 °C 39.4 °F /  4.1 °C 30.2in /  1023.7hPa ENE 2.9mph /  4.7km/h 4mph /  6.4km/h 46% 0in /  0.0mm 793 W/m2
12:08 60.6 °F /  15.9 °C 39.2 °F /  4 °C 30.2in /  1023.7hPa ESE 2mph /  3.2km/h 2mph /  3.2km/h 45% 0in /  0.0mm 803 W/m2
12:13 60.6 °F /  15.9 °C 38.7 °F /  3.7 °C 30.2in /  1023.7hPa NW 2.9mph /  4.7km/h 7mph /  11.3km/h 44% 0in /  0.0mm 807 W/m2
12:18 60.8 °F /  16 °C 38.7 °F /  3.7 °C 30.2in /  1023.4hPa NE 2mph /  3.2km/h 3mph /  4.8km/h 44% 0in /  0.0mm 814 W/m2
12:23 60.8 °F /  16 °C 38.7 °F /  3.7 °C 30.2in /  1023.7hPa ENE 2mph /  3.2km/h 7mph /  11.3km/h 44% 0in /  0.0mm 814 W/m2
12:28 60.8 °F /  16 °C 38.1 °F /  3.4 °C 30.2in /  1023.7hPa East 6.9mph /  11.1km/h 8mph /  12.9km/h 43% 0in /  0.0mm 821 W/m2
12:33 61.2 °F /  16.2 °C 40.3 °F /  4.6 °C 30.2in /  1023.7hPa East 2.9mph /  4.7km/h 3mph /  4.8km/h 46% 0in /  0.0mm 823 W/m2
12:38 61.3 °F /  16.3 °C 39.2 °F /  4 °C 30.2in /  1023.7hPa Calm   9mph /  14.5km/h 44% 0in /  0.0mm 826 W/m2
12:43 61.5 °F /  16.4 °C 41.7 °F /  5.4 °C 30.2in /  1023.7hPa NW 0.9mph /  1.4km/h 3mph /  4.8km/h 48% 0in /  0.0mm 830 W/m2
12:48 61.9 °F /  16.6 °C 39.7 °F /  4.3 °C 30.2in /  1023.4hPa WSW 2mph /  3.2km/h 4mph /  6.4km/h 44% 0in /  0.0mm 780 W/m2
12:53 62.1 °F /  16.7 °C 38.7 °F /  3.7 °C 30.2in /  1023.4hPa NNW 2mph /  3.2km/h 3mph /  4.8km/h 42% 0in /  0.0mm 817 W/m2
12:58 62.2 °F /  16.8 °C 40.1 °F /  4.5 °C 30.2in /  1023.4hPa NE 4.9mph /  7.9km/h 8mph /  12.9km/h 44% 0in /  0.0mm 830 W/m2
13:03 61.9 °F /  16.6 °C 39.7 °F /  4.3 °C 30.2in /  1023.4hPa NE 0.9mph /  1.4km/h 2mph /  3.2km/h 44% 0in /  0.0mm 835 W/m2
13:08 62.2 °F /  16.8 °C 40.1 °F /  4.5 °C 30.2in /  1023.4hPa ENE 2.9mph /  4.7km/h 7mph /  11.3km/h 44% 0in /  0.0mm 833 W/m2
13:13 62.6 °F /  17 °C 40.5 °F /  4.7 °C 30.2in /  1023.4hPa NW 0.9mph /  1.4km/h 4mph /  6.4km/h 44% 0in /  0.0mm 838 W/m2
13:18 62.6 °F /  17 °C 39.7 °F /  4.3 °C 30.2in /  1023.4hPa WNW 2mph /  3.2km/h 7mph /  11.3km/h 43% 0in /  0.0mm 840 W/m2
13:23 62.1 °F /  16.7 °C 38.7 °F /  3.7 °C 30.2in /  1023.4hPa West 4mph /  6.4km/h 5mph /  8km/h 42% 0in /  0.0mm 837 W/m2
13:28 62.2 °F /  16.8 °C 39.4 °F /  4.1 °C 30.2in /  1023.4hPa West 2mph /  3.2km/h 8mph /  12.9km/h 43% 0in /  0.0mm 835 W/m2
13:33 63 °F /  17.2 °C 40.1 °F /  4.5 °C 30.2in /  1023.4hPa ESE 2.9mph /  4.7km/h 4mph /  6.4km/h 43% 0in /  0.0mm 835 W/m2
13:38 63.3 °F /  17.4 °C 38.7 °F /  3.7 °C 30.2in /  1023.4hPa West 2mph /  3.2km/h 7mph /  11.3km/h 40% 0in /  0.0mm 840 W/m2
13:43 63.3 °F /  17.4 °C 40.5 °F /  4.7 °C 30.2in /  1023.4hPa Calm   3mph /  4.8km/h 43% 0in /  0.0mm 838 W/m2
13:48 63.7 °F /  17.6 °C 37.6 °F /  3.1 °C 30.2in /  1023.4hPa NNW 2.9mph /  4.7km/h 3mph /  4.8km/h 38% 0in /  0.0mm 837 W/m2
13:53 63.7 °F /  17.6 °C 37.6 °F /  3.1 °C 30.2in /  1023.4hPa WNW 2.9mph /  4.7km/h 4mph /  6.4km/h 38% 0in /  0.0mm 814 W/m2
13:58 63.7 °F /  17.6 °C 39.6 °F /  4.2 °C 30.2in /  1023.4hPa East 2.9mph /  4.7km/h 7mph /  11.3km/h 41% 0in /  0.0mm 831 W/m2
14:03 63.7 °F /  17.6 °C 39.6 °F /  4.2 °C 30.2in /  1023.4hPa East 2mph /  3.2km/h 4mph /  6.4km/h 41% 0in /  0.0mm 828 W/m2
14:08 64 °F /  17.8 °C 39.2 °F /  4 °C 30.2in /  1023.4hPa East 4.9mph /  7.9km/h 7mph /  11.3km/h 40% 0in /  0.0mm 830 W/m2
14:13 64.4 °F /  18 °C 40.8 °F /  4.9 °C 30.2in /  1023.4hPa NNE 2mph /  3.2km/h 5mph /  8km/h 42% 0in /  0.0mm 824 W/m2
14:18 64.2 °F /  17.9 °C 38.7 °F /  3.7 °C 30.2in /  1023.4hPa NNW 0.9mph /  1.4km/h 4mph /  6.4km/h 39% 0in /  0.0mm 821 W/m2
14:23 64.4 °F /  18 °C 39.6 °F /  4.2 °C 30.2in /  1023.4hPa East 2mph /  3.2km/h 2mph /  3.2km/h 40% 0in /  0.0mm 821 W/m2
14:28 64.8 °F /  18.2 °C 39.9 °F /  4.4 °C 30.2in /  1023.4hPa ENE 4.9mph /  7.9km/h 5mph /  8km/h 40% 0in /  0.0mm 816 W/m2
14:33 64.6 °F /  18.1 °C 41 °F /  5 °C 30.2in /  1023.0hPa North 2mph /  3.2km/h 2mph /  3.2km/h 42% 0in /  0.0mm 810 W/m2
14:38 64.9 °F /  18.3 °C 40.1 °F /  4.5 °C 30.2in /  1023.0hPa North 0.9mph /  1.4km/h 6mph /  9.7km/h 40% 0in /  0.0mm 809 W/m2
14:43 64.8 °F /  18.2 °C 40.5 °F /  4.7 °C 30.2in /  1023.0hPa WNW 2.9mph /  4.7km/h 4mph /  6.4km/h 41% 0in /  0.0mm 800 W/m2
14:48 64.8 °F /  18.2 °C 39.9 °F /  4.4 °C 30.2in /  1023.0hPa North 2mph /  3.2km/h 4mph /  6.4km/h 40% 0in /  0.0mm 796 W/m2
14:53 64.8 °F /  18.2 °C 40.5 °F /  4.7 °C 30.2in /  1023.0hPa West 4mph /  6.4km/h 8mph /  12.9km/h 41% 0in /  0.0mm 788 W/m2
14:59 64.8 °F /  18.2 °C 39.2 °F /  4 °C 30.2in /  1023.0hPa North 2mph /  3.2km/h 3mph /  4.8km/h 39% 0in /  0.0mm 784 W/m2
15:04 64.9 °F /  18.3 °C 40.6 °F /  4.8 °C 30.2in /  1023.0hPa NE 0.9mph /  1.4km/h 8mph /  12.9km/h 41% 0in /  0.0mm 777 W/m2
15:09 65.1 °F /  18.4 °C 40.3 °F /  4.6 °C 30.2in /  1023.0hPa SSE 0.9mph /  1.4km/h 7mph /  11.3km/h 40% 0in /  0.0mm 777 W/m2
15:14 65.7 °F /  18.7 °C 41.4 °F /  5.2 °C 30.2in /  1022.7hPa East 2mph /  3.2km/h 4mph /  6.4km/h 41% 0in /  0.0mm 770 W/m2
15:19 65.8 °F /  18.8 °C 40.8 °F /  4.9 °C 30.2in /  1022.7hPa ENE 11mph /  17.7km/h 11mph /  17.7km/h 40% 0in /  0.0mm 765 W/m2
15:24 66 °F /  18.9 °C 41 °F /  5 °C 30.2in /  1023.0hPa ENE 0.9mph /  1.4km/h 6mph /  9.7km/h 40% 0in /  0.0mm 752 W/m2
15:29 66 °F /  18.9 °C 41 °F /  5 °C 30.2in /  1022.7hPa NE 2mph /  3.2km/h 7mph /  11.3km/h 40% 0in /  0.0mm 745 W/m2
15:34 66.2 °F /  19 °C 41.7 °F /  5.4 °C 30.2in /  1022.7hPa West 2mph /  3.2km/h 3mph /  4.8km/h 41% 0in /  0.0mm 737 W/m2
15:39 66.7 °F /  19.3 °C 42.3 °F /  5.7 °C 30.2in /  1022.7hPa North 2mph /  3.2km/h 4mph /  6.4km/h 41% 0in /  0.0mm 729 W/m2
15:44 66.9 °F /  19.4 °C 40.5 °F /  4.7 °C 30.2in /  1022.7hPa WNW 0.9mph /  1.4km/h 3mph /  4.8km/h 38% 0in /  0.0mm 722 W/m2
15:49 66.7 °F /  19.3 °C 42.3 °F /  5.7 °C 30.2in /  1022.7hPa West 6mph /  9.7km/h 7mph /  11.3km/h 41% 0in /  0.0mm 712 W/m2
15:54 66.6 °F /  19.2 °C 41.5 °F /  5.3 °C 30.2in /  1022.7hPa NW 0.9mph /  1.4km/h 5mph /  8km/h 40% 0in /  0.0mm 705 W/m2
15:59 66.7 °F /  19.3 °C 41 °F /  5 °C 30.2in /  1022.7hPa Calm   3mph /  4.8km/h 39% 0in /  0.0mm 696 W/m2
16:04 66.7 °F /  19.3 °C 42.3 °F /  5.7 °C 30.2in /  1022.7hPa WNW 2mph /  3.2km/h 5mph /  8km/h 41% 0in /  0.0mm 687 W/m2
16:09 66.9 °F /  19.4 °C 41.9 °F /  5.5 °C 30.2in /  1022.7hPa ESE 2mph /  3.2km/h 4mph /  6.4km/h 40% 0in /  0.0mm 677 W/m2
16:14 67.5 °F /  19.7 °C 42.3 °F /  5.7 °C 30.2in /  1022.7hPa North 4mph /  6.4km/h 6mph /  9.7km/h 40% 0in /  0.0mm 671 W/m2
16:19 67.5 °F /  19.7 °C 41.7 °F /  5.4 °C 30.2in /  1022.4hPa NNE 2mph /  3.2km/h 2mph /  3.2km/h 39% 0in /  0.0mm 661 W/m2
16:24 67.3 °F /  19.6 °C 41.5 °F /  5.3 °C 30.2in /  1022.4hPa SE 2mph /  3.2km/h 6mph /  9.7km/h 39% 0in /  0.0mm 649 W/m2
16:29 67.5 °F /  19.7 °C 42.3 °F /  5.7 °C 30.2in /  1022.4hPa NNW 2mph /  3.2km/h 4mph /  6.4km/h 40% 0in /  0.0mm 640 W/m2
16:34 67.8 °F /  19.9 °C 41.4 °F /  5.2 °C 30.2in /  1022.4hPa West 6mph /  9.7km/h 8mph /  12.9km/h 38% 0in /  0.0mm 631 W/m2
16:39 67.8 °F /  19.9 °C 42.6 °F /  5.9 °C 30.2in /  1022.4hPa East 2mph /  3.2km/h 5mph /  8km/h 40% 0in /  0.0mm 621 W/m2
16:44 68 °F /  20 °C 41.4 °F /  5.2 °C 30.2in /  1022.4hPa WNW 4.9mph /  7.9km/h 8mph /  12.9km/h 38% 0in /  0.0mm 612 W/m2
16:49 67.8 °F /  19.9 °C 41.9 °F /  5.5 °C 30.2in /  1022.4hPa West 4mph /  6.4km/h 7mph /  11.3km/h 39% 0in /  0.0mm 599 W/m2
16:54 67.6 °F /  19.8 °C 42.4 °F /  5.8 °C 30.2in /  1022.4hPa West 2.9mph /  4.7km/h 7mph /  11.3km/h 40% 0in /  0.0mm 585 W/m2
16:59 67.6 °F /  19.8 °C 43.2 °F /  6.2 °C 30.2in /  1022.4hPa NNW 2.9mph /  4.7km/h 3mph /  4.8km/h 41% 0in /  0.0mm 575 W/m2
17:04 67.8 °F /  19.9 °C 42.6 °F /  5.9 °C 30.2in /  1022.0hPa Calm   4mph /  6.4km/h 40% 0in /  0.0mm 564 W/m2
17:09 68.2 °F /  20.1 °C 42.3 °F /  5.7 °C 30.2in /  1022.0hPa Calm   2mph /  3.2km/h 39% 0in /  0.0mm 554 W/m2
17:14 68.4 °F /  20.2 °C 41.7 °F /  5.4 °C 30.2in /  1022.0hPa ENE 2mph /  3.2km/h 2mph /  3.2km/h 38% 0in /  0.0mm 540 W/m2
17:19 68.2 °F /  20.1 °C 41.5 °F /  5.3 °C 30.2in /  1022.0hPa East 0.9mph /  1.4km/h 3mph /  4.8km/h 38% 0in /  0.0mm 531 W/m2
17:24 68.4 °F /  20.2 °C 42.4 °F /  5.8 °C 30.2in /  1022.0hPa ESE 2mph /  3.2km/h 3mph /  4.8km/h 39% 0in /  0.0mm 519 W/m2
17:29 68.5 °F /  20.3 °C 42.6 °F /  5.9 °C 30.2in /  1022.0hPa NE 2.9mph /  4.7km/h 3mph /  4.8km/h 39% 0in /  0.0mm 510 W/m2
17:34 68.5 °F /  20.3 °C 41.9 °F /  5.5 °C 30.2in /  1022.0hPa NW 0.9mph /  1.4km/h 4mph /  6.4km/h 38% 0in /  0.0mm 497 W/m2
17:39 68.5 °F /  20.3 °C 41.9 °F /  5.5 °C 30.2in /  1021.7hPa ESE 0.9mph /  1.4km/h 4mph /  6.4km/h 38% 0in /  0.0mm 485 W/m2
17:44 68.9 °F /  20.5 °C 42.3 °F /  5.7 °C 30.2in /  1022.0hPa NNW 2mph /  3.2km/h 9mph /  14.5km/h 38% 0in /  0.0mm 469 W/m2
17:49 69.1 °F /  20.6 °C 42.4 °F /  5.8 °C 30.2in /  1022.0hPa WNW 2mph /  3.2km/h 5mph /  8km/h 38% 0in /  0.0mm 455 W/m2
17:54 69.1 °F /  20.6 °C 41.7 °F /  5.4 °C 30.2in /  1021.7hPa East 2.9mph /  4.7km/h 9mph /  14.5km/h 37% 0in /  0.0mm 443 W/m2
17:59 68.7 °F /  20.4 °C 42.1 °F /  5.6 °C 30.2in /  1021.7hPa NW 0.9mph /  1.4km/h 4mph /  6.4km/h 38% 0in /  0.0mm 427 W/m2
18:04 68.7 °F /  20.4 °C 42.8 °F /  6 °C 30.2in /  1021.7hPa NE 2.9mph /  4.7km/h 5mph /  8km/h 39% 0in /  0.0mm 418 W/m2
18:09 68.7 °F /  20.4 °C 42.1 °F /  5.6 °C 30.2in /  1021.7hPa SSE 0.9mph /  1.4km/h 4mph /  6.4km/h 38% 0in /  0.0mm 406 W/m2
18:14 68.7 °F /  20.4 °C 41.4 °F /  5.2 °C 30.2in /  1021.7hPa NNW 4mph /  6.4km/h 6mph /  9.7km/h 37% 0in /  0.0mm 394 W/m2
18:20 68.9 °F /  20.5 °C 41.5 °F /  5.3 °C 30.2in /  1021.7hPa NNW 2.9mph /  4.7km/h 3mph /  4.8km/h 37% 0in /  0.0mm 378 W/m2
18:25 69.1 °F /  20.6 °C 41.7 °F /  5.4 °C 30.2in /  1021.7hPa SW 2mph /  3.2km/h 6mph /  9.7km/h 37% 0in /  0.0mm 362 W/m2
18:30 68.9 °F /  20.5 °C 41.5 °F /  5.3 °C 30.2in /  1021.7hPa NNW 2.9mph /  4.7km/h 5mph /  8km/h 37% 0in /  0.0mm 350 W/m2
18:35 69.1 °F /  20.6 °C 41.7 °F /  5.4 °C 30.2in /  1021.7hPa ENE 2.9mph /  4.7km/h 5mph /  8km/h 37% 0in /  0.0mm 338 W/m2
18:40 68.9 °F /  20.5 °C 41.5 °F /  5.3 °C 30.2in /  1021.7hPa NE 0.9mph /  1.4km/h 3mph /  4.8km/h 37% 0in /  0.0mm 323 W/m2
18:45 69.1 °F /  20.6 °C 42.4 °F /  5.8 °C 30.2in /  1021.7hPa NNE 2mph /  3.2km/h 3mph /  4.8km/h 38% 0in /  0.0mm 311 W/m2
18:50 69.3 °F /  20.7 °C 42.6 °F /  5.9 °C 30.2in /  1021.7hPa NNW 4mph /  6.4km/h 4mph /  6.4km/h 38% 0in /  0.0mm 295 W/m2
18:55 69.4 °F /  20.8 °C 42.8 °F /  6 °C 30.2in /  1021.7hPa WNW 2.9mph /  4.7km/h 7mph /  11.3km/h 38% 0in /  0.0mm 283 W/m2
19:00 69.4 °F /  20.8 °C 42.8 °F /  6 °C 30.2in /  1021.7hPa WNW 0.9mph /  1.4km/h 3mph /  4.8km/h 38% 0in /  0.0mm 269 W/m2
19:05 69.3 °F /  20.7 °C 41.9 °F /  5.5 °C 30.2in /  1021.7hPa NW 7mph /  11.3km/h 7mph /  11.3km/h 37% 0in /  0.0mm 257 W/m2
19:11 69.1 °F /  20.6 °C 42.4 °F /  5.8 °C 30.2in /  1021.7hPa NW 0.9mph /  1.4km/h 3mph /  4.8km/h 38% 0in /  0.0mm 241 W/m2
19:16 69.1 °F /  20.6 °C 42.4 °F /  5.8 °C 30.2in /  1021.7hPa NNW 4.9mph /  7.9km/h 6mph /  9.7km/h 38% 0in /  0.0mm 229 W/m2
19:21 68.7 °F /  20.4 °C 42.1 °F /  5.6 °C 30.2in /  1021.7hPa WNW 4mph /  6.4km/h 5mph /  8km/h 38% 0in /  0.0mm 216 W/m2
19:26 68.5 °F /  20.3 °C 42.6 °F /  5.9 °C 30.2in /  1021.7hPa ENE 4mph /  6.4km/h 4mph /  6.4km/h 39% 0in /  0.0mm 199 W/m2
19:31 68.5 °F /  20.3 °C 43.3 °F /  6.3 °C 30.2in /  1021.7hPa NNW 2.9mph /  4.7km/h 4mph /  6.4km/h 40% 0in /  0.0mm 185 W/m2
19:36 68.5 °F /  20.3 °C 42.6 °F /  5.9 °C 30.2in /  1021.7hPa NE 2mph /  3.2km/h 3mph /  4.8km/h 39% 0in /  0.0mm 172 W/m2
19:41 68.4 °F /  20.2 °C 42.4 °F /  5.8 °C 30.2in /  1021.7hPa North 0.9mph /  1.4km/h 5mph /  8km/h 39% 0in /  0.0mm 158 W/m2
19:46 68.4 °F /  20.2 °C 42.4 °F /  5.8 °C 30.2in /  1021.7hPa WNW 2mph /  3.2km/h 4mph /  6.4km/h 39% 0in /  0.0mm 141 W/m2
19:51 68.4 °F /  20.2 °C 42.4 °F /  5.8 °C 30.2in /  1021.7hPa NNW 2mph /  3.2km/h 5mph /  8km/h 39% 0in /  0.0mm 128 W/m2
19:56 68.2 °F /  20.1 °C 42.3 °F /  5.7 °C 30.2in /  1021.7hPa NNE 0.9mph /  1.4km/h 3mph /  4.8km/h 39% 0in /  0.0mm 113 W/m2
20:01 68.2 °F /  20.1 °C 42.3 °F /  5.7 °C 30.2in /  1021.7hPa Calm   3mph /  4.8km/h 39% 0in /  0.0mm 102 W/m2
20:06 68.2 °F /  20.1 °C 43 °F /  6.1 °C 30.2in /  1021.7hPa NE 2mph /  3.2km/h 3mph /  4.8km/h 40% 0in /  0.0mm 88 W/m2
20:11 68 °F /  20 °C 42.8 °F /  6 °C 30.2in /  1021.7hPa West 4mph /  6.4km/h 4mph /  6.4km/h 40% 0in /  0.0mm 77 W/m2
20:16 67.8 °F /  19.9 °C 42.6 °F /  5.9 °C 30.2in /  1021.7hPa NNW 0.9mph /  1.4km/h 4mph /  6.4km/h 40% 0in /  0.0mm 67 W/m2
20:21 67.6 °F /  19.8 °C 43.2 °F /  6.2 °C 30.2in /  1021.7hPa West 0.9mph /  1.4km/h 4mph /  6.4km/h 41% 0in /  0.0mm 58 W/m2
20:26 67.5 °F /  19.7 °C 43 °F /  6.1 °C 30.2in /  1021.7hPa West 2mph /  3.2km/h 3mph /  4.8km/h 41% 0in /  0.0mm 47 W/m2
20:31 66.9 °F /  19.4 °C 43.2 °F /  6.2 °C 30.2in /  1021.7hPa West 2mph /  3.2km/h 2mph /  3.2km/h 42% 0in /  0.0mm 40 W/m2
20:36 66.7 °F /  19.3 °C 44.1 °F /  6.7 °C 30.2in /  1021.7hPa West 2mph /  3.2km/h 3mph /  4.8km/h 44% 0in /  0.0mm 33 W/m2
20:41 66 °F /  18.9 °C 44.6 °F /  7 °C 30.2in /  1021.7hPa West 2mph /  3.2km/h 2mph /  3.2km/h 46% 0in /  0.0mm 26 W/m2
20:46 65.7 °F /  18.7 °C 45 °F /  7.2 °C 30.2in /  1021.7hPa Calm   3mph /  4.8km/h 47% 0in /  0.0mm 21 W/m2
20:51 65.1 °F /  18.4 °C 44.4 °F /  6.9 °C 30.2in /  1021.7hPa WSW 0.9mph /  1.4km/h 2mph /  3.2km/h 47% 0in /  0.0mm 16 W/m2
20:56 64.8 °F /  18.2 °C 44.6 °F /  7 °C 30.2in /  1021.7hPa WSW 0.9mph /  1.4km/h 3mph /  4.8km/h 48% 0in /  0.0mm 14 W/m2
21:01 64.2 °F /  17.9 °C 45.1 °F /  7.3 °C 30.2in /  1021.7hPa Calm     50% 0in /  0.0mm 11 W/m2
21:06 63.7 °F /  17.6 °C 45.7 °F /  7.6 °C 30.2in /  1021.7hPa Calm   2mph /  3.2km/h 52% 0in /  0.0mm 9 W/m2
21:11 63.1 °F /  17.3 °C 45.1 °F /  7.3 °C 30.2in /  1021.7hPa Calm   1mph /  1.6km/h 52% 0in /  0.0mm 7 W/m2
21:16 62.6 °F /  17 °C 45.1 °F /  7.3 °C 30.2in /  1021.7hPa WSW 0.9mph /  1.4km/h 2mph /  3.2km/h 53% 0in /  0.0mm 5 W/m2
21:21 61.9 °F /  16.6 °C 45.1 °F /  7.3 °C 30.2in /  1021.7hPa Calm     54% 0in /  0.0mm 0 W/m2
21:26 61.2 °F /  16.2 °C 45.3 °F /  7.4 °C 30.2in /  1021.7hPa Calm     56% 0in /  0.0mm 0 W/m2
21:31 60.6 °F /  15.9 °C 44.8 °F /  7.1 °C 30.2in /  1022.0hPa Calm     56% 0in /  0.0mm 0 W/m2
21:36 60.1 °F /  15.6 °C 44.8 °F /  7.1 °C 30.2in /  1022.0hPa Calm   1mph /  1.6km/h 57% 0in /  0.0mm 0 W/m2
21:41 59.4 °F /  15.2 °C 44.1 °F /  6.7 °C 30.2in /  1022.0hPa WSW 0.9mph /  1.4km/h 2mph /  3.2km/h 57% 0in /  0.0mm 0 W/m2
21:46 59 °F /  15 °C 44.2 °F /  6.8 °C 30.2in /  1022.4hPa West 0.9mph /  1.4km/h 1mph /  1.6km/h 58% 0in /  0.0mm 0 W/m2
21:51 58.6 °F /  14.8 °C 44.4 °F /  6.9 °C 30.2in /  1022.4hPa Calm   1mph /  1.6km/h 59% 0in /  0.0mm 0 W/m2
21:56 58.5 °F /  14.7 °C 44.6 °F /  7 °C 30.2in /  1022.4hPa Calm   1mph /  1.6km/h 60% 0in /  0.0mm 0 W/m2
22:01 58.3 °F /  14.6 °C 44.4 °F /  6.9 °C 30.2in /  1022.4hPa Calm     60% 0in /  0.0mm 0 W/m2
22:06 58.1 °F /  14.5 °C 44.8 °F /  7.1 °C 30.2in /  1022.4hPa Calm     61% 0in /  0.0mm 0 W/m2
22:11 57.7 °F /  14.3 °C 44.8 °F /  7.1 °C 30.2in /  1022.4hPa Calm     62% 0in /  0.0mm 0 W/m2
22:16 57.6 °F /  14.2 °C 44.6 °F /  7 °C 30.2in /  1022.4hPa Calm     62% 0in /  0.0mm 0 W/m2
22:21 57.4 °F /  14.1 °C 45 °F /  7.2 °C 30.2in /  1022.4hPa Calm     63% 0in /  0.0mm 0 W/m2
22:26 57 °F /  13.9 °C 45 °F /  7.2 °C 30.2in /  1022.4hPa Calm     64% 0in /  0.0mm 0 W/m2
22:31 56.7 °F /  13.7 °C 45 °F /  7.2 °C 30.2in /  1022.7hPa West 2mph /  3.2km/h 2mph /  3.2km/h 65% 0in /  0.0mm 0 W/m2
22:36 56.7 °F /  13.7 °C 45.5 °F /  7.5 °C 30.2in /  1022.7hPa West 0.9mph /  1.4km/h 2mph /  3.2km/h 66% 0in /  0.0mm 0 W/m2
22:41 56.5 °F /  13.6 °C 45.3 °F /  7.4 °C 30.2in /  1022.7hPa West 0.9mph /  1.4km/h 2mph /  3.2km/h 66% 0in /  0.0mm 0 W/m2
22:46 56.1 °F /  13.4 °C 45 °F /  7.2 °C 30.2in /  1022.7hPa WSW 0.9mph /  1.4km/h 2mph /  3.2km/h 66% 0in /  0.0mm 0 W/m2
22:51 56.1 °F /  13.4 °C 45 °F /  7.2 °C 30.2in /  1022.7hPa WSW 2mph /  3.2km/h 2mph /  3.2km/h 66% 0in /  0.0mm 0 W/m2
22:56 56.3 °F /  13.5 °C 45.1 °F /  7.3 °C 30.2in /  1022.7hPa WNW 2mph /  3.2km/h 2mph /  3.2km/h 66% 0in /  0.0mm 0 W/m2
23:01 56.5 °F /  13.6 °C 45.3 °F /  7.4 °C 30.2in /  1022.7hPa WNW 2mph /  3.2km/h 2mph /  3.2km/h 66% 0in /  0.0mm 0 W/m2
23:06 56.5 °F /  13.6 °C 45.3 °F /  7.4 °C 30.2in /  1022.7hPa WNW 0.9mph /  1.4km/h 2mph /  3.2km/h 66% 0in /  0.0mm 0 W/m2
23:11 56.3 °F /  13.5 °C 45.1 °F /  7.3 °C 30.2in /  1022.7hPa WNW 0.9mph /  1.4km/h 1mph /  1.6km/h 66% 0in /  0.0mm 0 W/m2
23:16 56.1 °F /  13.4 °C 45 °F /  7.2 °C 30.2in /  1022.7hPa WNW 0.9mph /  1.4km/h 2mph /  3.2km/h 66% 0in /  0.0mm 0 W/m2
23:21 55.9 °F /  13.3 °C 45.1 °F /  7.3 °C 30.2in /  1022.4hPa WNW 0.9mph /  1.4km/h 2mph /  3.2km/h 67% 0in /  0.0mm 0 W/m2
23:26 55.8 °F /  13.2 °C 45 °F /  7.2 °C 30.2in /  1022.4hPa WNW 0.9mph /  1.4km/h 2mph /  3.2km/h 67% 0in /  0.0mm 0 W/m2
23:31 55.6 °F /  13.1 °C 45.1 °F /  7.3 °C 30.2in /  1022.4hPa Calm   1mph /  1.6km/h 68% 0in /  0.0mm 0 W/m2
23:36 55.2 °F /  12.9 °C 44.8 °F /  7.1 °C 30.2in /  1022.4hPa WNW 0.9mph /  1.4km/h 2mph /  3.2km/h 68% 0in /  0.0mm 0 W/m2
23:41 54.9 °F /  12.7 °C 45 °F /  7.2 °C 30.2in /  1022.4hPa West 0.9mph /  1.4km/h 3mph /  4.8km/h 69% 0in /  0.0mm 0 W/m2
23:46 54.7 °F /  12.6 °C 45.1 °F /  7.3 °C 30.2in /  1022.4hPa WNW 0.9mph /  1.4km/h 2mph /  3.2km/h 70% 0in /  0.0mm 0 W/m2
23:51 54.3 °F /  12.4 °C 44.8 °F /  7.1 °C 30.2in /  1022.4hPa WNW 2mph /  3.2km/h 2mph /  3.2km/h 70% 0in /  0.0mm 0 W/m2
23:56 54.3 °F /  12.4 °C 45.1 °F /  7.3 °C 30.2in /  1022.4hPa Calm   2mph /  3.2km/h 71% 0in /  0.0mm 0 W/m2
Juneau County Weather
Compliments of Weather Underground - 4 mb